Time;durP1;ratioP1;P1;durP2;ratioP2;P2;SDS_P1;SDS_P2;PMS_P1;PMS_P2;Temp;Humidity;BMP_temperature;BMP_pressure;BME280_temperature;BME280_humidity;BME280_pressure;Samples;Min_cycle;Max_cycle;Signal;HPM_P1;HPM_P2
2023/06/04 00:00:07;;;;;;;1.95;1.25;;;;;;;;;;5033093;28;20197;-42
2023/06/04 00:02:35;;;;;;;1.92;1.25;;;;;;;;;;5019205;28;20657;-42
2023/06/04 00:05:02;;;;;;;1.85;1.17;;;;;;;;;;5040415;28;20228;-42
2023/06/04 00:07:29;;;;;;;1.75;1.13;;;;;;;;;;5033042;28;20376;-42
2023/06/04 00:09:57;;;;;;;2.60;1.15;;;;;;;;;;5033092;28;20665;-42
2023/06/04 00:12:24;;;;;;;3.33;1.23;;;;;;;;;;5032996;28;20270;-42
2023/06/04 00:14:51;;;;;;;3.40;1.20;;;;;;;;;;5033087;28;20205;-42
2023/06/04 00:17:18;;;;;;;1.80;1.15;;;;;;;;;;5033423;28;20254;-42
2023/06/04 00:19:45;;;;;;;1.58;1.25;;;;;;;;;;5032670;28;20745;-42
2023/06/04 00:22:12;;;;;;;2.80;1.20;;;;;;;;;;5033273;28;20221;-42
2023/06/04 00:24:40;;;;;;;1.27;0.88;;;;;;;;;;5032882;28;20200;-42
2023/06/04 00:27:08;;;;;;;1.60;0.98;;;;;;;;;;5032922;28;20213;-42
2023/06/04 00:29:35;;;;;;;1.40;1.10;;;;;;;;;;5032721;28;20205;-42
2023/06/04 00:32:03;;;;;;;1.77;1.17;;;;;;;;;;5033206;28;20213;-42
2023/06/04 00:34:30;;;;;;;1.60;0.90;;;;;;;;;;5033040;28;20204;-42
2023/06/04 00:36:57;;;;;;;1.27;1.08;;;;;;;;;;5032840;28;20212;-42
2023/06/04 00:39:25;;;;;;;1.80;1.17;;;;;;;;;;5032831;28;20211;-42
2023/06/04 00:41:52;;;;;;;1.33;0.70;;;;;;;;;;5032642;28;20256;-42
2023/06/04 00:44:21;;;;;;;1.88;1.17;;;;;;;;;;5033348;28;20689;-42
2023/06/04 00:46:49;;;;;;;1.85;1.00;;;;;;;;;;5032810;28;20204;-42
2023/06/04 00:49:16;;;;;;;0.80;0.68;;;;;;;;;;5015472;28;20592;-42
2023/06/04 00:51:44;;;;;;;1.50;0.98;;;;;;;;;;5015486;28;20204;-41
2023/06/04 00:54:12;;;;;;;2.40;1.40;;;;;;;;;;5016661;28;20209;-42
2023/06/04 00:56:39;;;;;;;1.08;0.90;;;;;;;;;;5002602;28;20680;-42
2023/06/04 00:59:11;;;;;;;1.80;1.00;;;;;;;;;;5036335;28;20201;-42
2023/06/04 01:01:59;;;;;;;2.03;1.20;;;;;;;;;;5019362;28;20251;-42
2023/06/04 01:04:51;;;;;;;3.25;1.33;;;;;;;;;;5036306;28;20748;-42
2023/06/04 01:07:18;;;;;;;3.45;0.93;;;;;;;;;;5036472;28;20204;-42
2023/06/04 01:09:46;;;;;;;1.25;1.00;;;;;;;;;;5036405;28;20204;-42
2023/06/04 01:12:13;;;;;;;2.65;1.20;;;;;;;;;;5021609;28;20200;-43
2023/06/04 01:14:41;;;;;;;2.30;1.25;;;;;;;;;;5056553;28;20249;-42
2023/06/04 01:17:57;;;;;;;2.53;1.08;;;;;;;;;;5038313;28;20200;-41
2023/06/04 01:20:36;;;;;;;1.35;1.10;;;;;;;;;;4975050;28;20202;-42
2023/06/04 01:23:34;;;;;;;1.70;1.02;;;;;;;;;;4975370;28;20199;-42
2023/06/04 01:26:03;;;;;;;2.13;1.13;;;;;;;;;;4975076;28;20210;-42
2023/06/04 01:28:33;;;;;;;1.17;1.00;;;;;;;;;;4958993;28;20712;-41
2023/06/04 01:31:01;;;;;;;1.10;0.95;;;;;;;;;;4974872;28;20210;-42
2023/06/04 01:33:29;;;;;;;1.98;1.15;;;;;;;;;;4974950;28;20207;-43
2023/06/04 01:35:58;;;;;;;2.55;1.40;;;;;;;;;;4974686;28;20207;-43
2023/06/04 01:38:25;;;;;;;2.05;1.10;;;;;;;;;;4958559;28;20261;-41
2023/06/04 01:40:56;;;;;;;2.95;0.90;;;;;;;;;;4958343;28;20235;-41
2023/06/04 01:43:23;;;;;;;2.00;1.10;;;;;;;;;;4974359;28;20246;-42
2023/06/04 01:45:50;;;;;;;1.42;0.90;;;;;;;;;;4974353;28;20636;-41
2023/06/04 01:48:17;;;;;;;1.45;0.90;;;;;;;;;;4974569;28;20203;-41
2023/06/04 01:50:44;;;;;;;2.10;0.90;;;;;;;;;;4985217;28;20234;-42
2023/06/04 01:53:11;;;;;;;2.38;0.88;;;;;;;;;;5037600;28;20274;-42
2023/06/04 01:55:39;;;;;;;2.00;1.23;;;;;;;;;;5037537;28;20211;-42
2023/06/04 01:58:07;;;;;;;2.67;1.25;;;;;;;;;;5037380;28;20224;-42
2023/06/04 02:00:34;;;;;;;2.13;1.20;;;;;;;;;;5037679;28;20212;-42
2023/06/04 02:03:01;;;;;;;2.70;1.20;;;;;;;;;;5055263;28;20208;-42
2023/06/04 02:05:29;;;;;;;2.20;1.13;;;;;;;;;;5036820;28;20204;-41
2023/06/04 02:07:57;;;;;;;2.95;1.15;;;;;;;;;;5055000;28;20286;-42
2023/06/04 02:10:24;;;;;;;1.27;0.90;;;;;;;;;;5036950;28;20200;-41
2023/06/04 02:13:00;;;;;;;2.95;1.40;;;;;;;;;;5036911;28;20291;-41
2023/06/04 02:15:28;;;;;;;2.70;1.08;;;;;;;;;;5055013;28;20190;-42
2023/06/04 02:18:12;;;;;;;2.85;1.05;;;;;;;;;;5054496;28;20204;-41
2023/06/04 02:20:40;;;;;;;2.38;0.80;;;;;;;;;;5054521;28;20638;-41
2023/06/04 02:23:07;;;;;;;1.60;1.05;;;;;;;;;;5054612;28;20560;-39
2023/06/04 02:25:34;;;;;;;2.08;1.30;;;;;;;;;;5054675;28;20208;-42
2023/06/04 02:28:01;;;;;;;1.05;0.90;;;;;;;;;;5036941;28;20207;-42
2023/06/04 02:30:28;;;;;;;1.75;1.10;;;;;;;;;;5054329;28;20273;-42
2023/06/04 02:32:56;;;;;;;1.63;1.00;;;;;;;;;;5054314;28;20218;-43
2023/06/04 02:35:24;;;;;;;3.30;1.40;;;;;;;;;;5036690;28;20208;-43
2023/06/04 02:37:51;;;;;;;1.77;1.15;;;;;;;;;;5036518;28;20199;-42
2023/06/04 02:40:19;;;;;;;1.25;0.90;;;;;;;;;;5054274;28;20204;-41
2023/06/04 02:42:46;;;;;;;2.17;1.23;;;;;;;;;;5036490;28;20270;-41
2023/06/04 02:45:13;;;;;;;1.92;0.85;;;;;;;;;;5054681;28;20212;-42
2023/06/04 02:47:40;;;;;;;1.88;1.10;;;;;;;;;;5054210;28;20645;-41
2023/06/04 02:50:08;;;;;;;1.98;1.30;;;;;;;;;;5036763;28;20200;-41
2023/06/04 02:52:36;;;;;;;1.42;1.20;;;;;;;;;;5054481;28;20243;-41
2023/06/04 02:55:06;;;;;;;1.77;0.95;;;;;;;;;;5054014;28;20208;-41
2023/06/04 02:57:33;;;;;;;1.42;0.90;;;;;;;;;;5054002;28;20212;-41
2023/06/04 03:00:11;;;;;;;1.77;0.98;;;;;;;;;;5052147;28;20222;-43
2023/06/04 03:02:43;;;;;;;1.95;0.98;;;;;;;;;;5032284;28;20208;-42
2023/06/04 03:05:12;;;;;;;1.63;1.25;;;;;;;;;;5051045;28;20199;-41
2023/06/04 03:07:44;;;;;;;1.55;1.00;;;;;;;;;;5046289;28;20208;-42
2023/06/04 03:10:14;;;;;;;2.17;1.10;;;;;;;;;;5053266;28;20200;-42
2023/06/04 03:12:41;;;;;;;1.40;1.15;;;;;;;;;;5048735;28;20218;-42
2023/06/04 03:15:10;;;;;;;1.40;0.98;;;;;;;;;;5051926;28;20199;-42
2023/06/04 03:17:37;;;;;;;2.63;1.10;;;;;;;;;;5034032;28;20192;-43
2023/06/04 03:20:07;;;;;;;2.47;1.10;;;;;;;;;;5032252;28;20547;-44
2023/06/04 03:22:35;;;;;;;1.63;1.23;;;;;;;;;;5034692;28;20215;-42
2023/06/04 03:25:04;;;;;;;3.25;1.27;;;;;;;;;;5035755;28;20192;-42
2023/06/04 03:27:34;;;;;;;1.75;0.95;;;;;;;;;;5035336;28;20246;-43
2023/06/04 03:30:04;;;;;;;1.48;1.25;;;;;;;;;;5035560;28;20207;-45
2023/06/04 03:32:51;;;;;;;2.28;1.20;;;;;;;;;;5051745;28;20220;-43
2023/06/04 03:35:19;;;;;;;1.40;1.00;;;;;;;;;;5050614;28;20196;-43
2023/06/04 03:37:46;;;;;;;1.95;0.90;;;;;;;;;;5052958;28;20196;-46
2023/06/04 03:40:14;;;;;;;1.98;1.10;;;;;;;;;;5052789;28;20207;-42
2023/06/04 03:42:44;;;;;;;2.10;1.17;;;;;;;;;;5035056;28;20628;-45
2023/06/04 03:45:13;;;;;;;1.73;0.90;;;;;;;;;;5035246;28;20657;-44
2023/06/04 03:47:40;;;;;;;1.75;0.80;;;;;;;;;;5033057;28;20192;-43
2023/06/04 03:50:09;;;;;;;3.33;0.80;;;;;;;;;;5035521;28;20187;-43
2023/06/04 03:52:37;;;;;;;2.50;1.25;;;;;;;;;;5035002;28;20561;-42
2023/06/04 03:55:07;;;;;;;2.25;1.30;;;;;;;;;;5032477;28;20621;-42
2023/06/04 03:57:35;;;;;;;1.00;0.90;;;;;;;;;;5032999;28;20200;-43
2023/06/04 04:00:03;;;;;;;0.75;0.75;;;;;;;;;;5019373;28;20204;-42
2023/06/04 04:02:40;;;;;;;3.13;0.85;;;;;;;;;;5053617;28;20216;-42
2023/06/04 04:05:13;;;;;;;1.77;1.20;;;;;;;;;;5035656;28;20211;-42
2023/06/04 04:07:44;;;;;;;0.77;0.77;;;;;;;;;;5035435;28;20201;-42
2023/06/04 04:10:12;;;;;;;1.70;1.10;;;;;;;;;;5035342;28;20693;-44
2023/06/04 04:12:39;;;;;;;1.23;0.77;;;;;;;;;;5053080;28;20226;-42
2023/06/04 04:15:07;;;;;;;1.20;0.80;;;;;;;;;;5035261;28;20665;-43
2023/06/04 04:17:34;;;;;;;1.73;0.80;;;;;;;;;;5027037;28;20212;-42
2023/06/04 04:20:05;;;;;;;2.65;0.73;;;;;;;;;;5015646;28;20212;-41
2023/06/04 04:22:34;;;;;;;0.88;0.80;;;;;;;;;;5015451;28;20224;-42
2023/06/04 04:25:01;;;;;;;0.98;0.80;;;;;;;;;;5023770;28;20231;-43
2023/06/04 04:27:30;;;;;;;0.90;0.75;;;;;;;;;;5052891;28;20287;-41
2023/06/04 04:30:00;;;;;;;1.85;0.88;;;;;;;;;;5039473;28;20204;-42
2023/06/04 04:32:30;;;;;;;4.63;0.90;;;;;;;;;;5039451;28;20287;-41
2023/06/04 04:34:59;;;;;;;2.95;0.82;;;;;;;;;;5035452;28;20210;-42
2023/06/04 04:37:33;;;;;;;0.68;0.60;;;;;;;;;;5034413;28;20220;-42
2023/06/04 04:40:00;;;;;;;1.63;0.73;;;;;;;;;;5035155;28;20558;-41
2023/06/04 04:42:31;;;;;;;1.10;0.75;;;;;;;;;;5020858;28;20295;-44
2023/06/04 04:45:00;;;;;;;2.92;1.00;;;;;;;;;;5033354;28;20200;-42
2023/06/04 04:47:29;;;;;;;2.92;0.80;;;;;;;;;;5027763;28;20625;-44
2023/06/04 04:49:56;;;;;;;2.65;0.75;;;;;;;;;;5027539;28;20546;-42
2023/06/04 04:52:24;;;;;;;1.05;0.70;;;;;;;;;;5025924;28;20664;-47
2023/06/04 04:54:55;;;;;;;2.72;0.60;;;;;;;;;;5020104;28;20197;-43
2023/06/04 04:57:24;;;;;;;1.45;0.80;;;;;;;;;;5020349;28;20204;-48
2023/06/04 04:59:53;;;;;;;1.08;0.68;;;;;;;;;;5020133;28;20542;-43
2023/06/04 05:02:21;;;;;;;1.50;0.80;;;;;;;;;;5050069;28;20688;-44
2023/06/04 05:04:50;;;;;;;2.20;0.80;;;;;;;;;;5026690;28;20212;-46
2023/06/04 05:07:19;;;;;;;2.45;0.80;;;;;;;;;;5024458;28;20223;-42
2023/06/04 05:09:47;;;;;;;3.72;2.08;;;;;;;;;;5023124;28;20206;-43
2023/06/04 05:12:14;;;;;;;1.92;1.08;;;;;;;;;;5026100;28;20290;-43
2023/06/04 05:14:42;;;;;;;1.02;0.80;;;;;;;;;;5025195;28;20224;-45
2023/06/04 05:17:10;;;;;;;1.35;0.90;;;;;;;;;;5025887;28;20311;-43
2023/06/04 05:19:39;;;;;;;0.93;0.57;;;;;;;;;;5029857;28;20220;-44
2023/06/04 05:22:06;;;;;;;2.13;0.77;;;;;;;;;;5029433;28;20233;-43
2023/06/04 05:24:34;;;;;;;0.60;0.50;;;;;;;;;;5028052;28;20747;-43
2023/06/04 05:27:04;;;;;;;1.10;0.70;;;;;;;;;;5028355;28;20246;-43
2023/06/04 05:29:32;;;;;;;1.60;0.60;;;;;;;;;;5032773;28;20212;-43
2023/06/04 05:31:59;;;;;;;0.88;0.60;;;;;;;;;;5032337;28;20254;-43
2023/06/04 05:34:27;;;;;;;0.52;0.50;;;;;;;;;;5037561;28;20235;-44
2023/06/04 05:36:57;;;;;;;1.10;0.63;;;;;;;;;;5037051;28;20231;-44
2023/06/04 05:39:25;;;;;;;0.82;0.60;;;;;;;;;;5036585;28;20226;-43
2023/06/04 05:41:58;;;;;;;0.63;0.50;;;;;;;;;;5030680;28;20238;-46
2023/06/04 05:44:26;;;;;;;0.93;0.60;;;;;;;;;;5024481;28;20238;-44
2023/06/04 05:46:53;;;;;;;1.38;0.50;;;;;;;;;;5022849;28;20221;-45
2023/06/04 05:49:24;;;;;;;1.10;0.60;;;;;;;;;;5017832;28;20573;-44
2023/06/04 05:51:52;;;;;;;1.10;0.50;;;;;;;;;;5027052;28;20232;-44
2023/06/04 05:54:19;;;;;;;1.17;0.52;;;;;;;;;;5033000;28;20619;-43
2023/06/04 05:56:48;;;;;;;0.70;0.55;;;;;;;;;;5033453;28;20776;-43
2023/06/04 05:59:16;;;;;;;1.45;0.55;;;;;;;;;;5033636;28;20221;-46
2023/06/04 06:01:43;;;;;;;1.13;0.50;;;;;;;;;;5024643;28;20720;-45
2023/06/04 06:04:12;;;;;;;1.90;0.70;;;;;;;;;;5023686;28;20220;-45
2023/06/04 06:06:43;;;;;;;1.85;0.70;;;;;;;;;;5033581;28;20232;-44
2023/06/04 06:09:11;;;;;;;0.75;0.38;;;;;;;;;;5032886;28;20597;-45
2023/06/04 06:11:38;;;;;;;0.80;0.50;;;;;;;;;;5032998;28;20244;-45
2023/06/04 06:14:05;;;;;;;1.50;0.70;;;;;;;;;;5033748;28;20224;-44
2023/06/04 06:16:32;;;;;;;0.30;0.28;;;;;;;;;;5033054;28;20686;-44
2023/06/04 06:19:01;;;;;;;0.40;0.40;;;;;;;;;;5020426;28;20224;-44
2023/06/04 06:21:28;;;;;;;0.25;0.25;;;;;;;;;;5013214;28;20252;-46
2023/06/04 06:23:56;;;;;;;9.13;4.78;;;;;;;;;;5027437;28;20251;-44
2023/06/04 06:26:24;;;;;;;0.75;0.65;;;;;;;;;;5033550;28;20224;-46
2023/06/04 06:28:55;;;;;;;1.00;0.57;;;;;;;;;;5017552;28;20244;-44
2023/06/04 06:31:23;;;;;;;1.08;0.50;;;;;;;;;;5013012;28;20256;-43
2023/06/04 06:33:50;;;;;;;1.65;0.40;;;;;;;;;;5014326;28;20229;-44
2023/06/04 06:36:18;;;;;;;1.52;0.50;;;;;;;;;;5013537;28;20272;-44
2023/06/04 06:38:46;;;;;;;0.90;0.50;;;;;;;;;;5014364;28;20224;-42
2023/06/04 06:41:13;;;;;;;0.98;0.80;;;;;;;;;;5014174;28;20279;-45
2023/06/04 06:43:41;;;;;;;1.08;0.40;;;;;;;;;;5013068;28;20251;-44
2023/06/04 06:46:08;;;;;;;0.45;0.38;;;;;;;;;;5013766;28;20225;-43
2023/06/04 06:48:36;;;;;;;0.20;0.20;;;;;;;;;;5013629;28;20222;-42
2023/06/04 06:51:03;;;;;;;1.10;0.70;;;;;;;;;;5014313;28;20229;-42
2023/06/04 06:53:30;;;;;;;0.70;0.40;;;;;;;;;;5016169;28;20590;-44
2023/06/04 06:55:57;;;;;;;3.33;0.50;;;;;;;;;;5030261;28;20216;-45
2023/06/04 06:58:25;;;;;;;0.55;0.40;;;;;;;;;;5014354;28;20702;-45
2023/06/04 07:00:54;;;;;;;2.60;0.47;;;;;;;;;;5021208;28;20296;-44
2023/06/04 07:03:22;;;;;;;0.50;0.40;;;;;;;;;;5024423;28;20225;-46
2023/06/04 07:05:49;;;;;;;0.93;0.60;;;;;;;;;;5020269;28;20216;-47
2023/06/04 07:08:16;;;;;;;0.90;0.60;;;;;;;;;;5021024;28;20632;-47
2023/06/04 07:10:43;;;;;;;1.73;0.52;;;;;;;;;;5025631;28;20219;-45
2023/06/04 07:13:10;;;;;;;0.98;0.47;;;;;;;;;;5025693;28;20597;-46
2023/06/04 07:15:38;;;;;;;1.23;0.60;;;;;;;;;;5021971;28;20735;-46
2023/06/04 07:18:05;;;;;;;2.35;0.50;;;;;;;;;;5021762;28;20255;-45
2023/06/04 07:20:32;;;;;;;3.50;0.68;;;;;;;;;;5023525;28;20227;-46
2023/06/04 07:22:59;;;;;;;1.65;0.50;;;;;;;;;;5021948;28;20232;-45
2023/06/04 07:25:26;;;;;;;0.90;0.40;;;;;;;;;;5023318;28;20213;-45
2023/06/04 07:27:57;;;;;;;0.98;0.52;;;;;;;;;;5025509;28;20220;-45
2023/06/04 07:30:25;;;;;;;0.63;0.47;;;;;;;;;;5017881;28;20267;-44
2023/06/04 07:32:53;;;;;;;0.68;0.50;;;;;;;;;;5012971;28;20233;-45
2023/06/04 07:35:20;;;;;;;0.80;0.50;;;;;;;;;;5031100;28;20240;-49
2023/06/04 07:37:48;;;;;;;0.98;0.50;;;;;;;;;;5031995;28;20228;-44
2023/06/04 07:40:17;;;;;;;0.63;0.50;;;;;;;;;;5032371;28;20220;-44
2023/06/04 07:42:45;;;;;;;1.58;0.40;;;;;;;;;;5033214;28;20236;-44
2023/06/04 07:45:12;;;;;;;0.82;0.30;;;;;;;;;;5045183;28;20216;-43
2023/06/04 07:47:40;;;;;;;0.93;0.30;;;;;;;;;;5044339;28;20243;-44
2023/06/04 07:50:08;;;;;;;1.73;0.52;;;;;;;;;;5033036;28;20225;-44
2023/06/04 07:52:36;;;;;;;1.48;0.38;;;;;;;;;;5035716;28;20232;-44
2023/06/04 07:55:03;;;;;;;2.22;0.50;;;;;;;;;;5043211;28;20240;-43
2023/06/04 07:57:31;;;;;;;1.17;0.50;;;;;;;;;;5040243;28;20586;-43
2023/06/04 07:59:59;;;;;;;1.10;0.60;;;;;;;;;;5044754;28;20649;-44
2023/06/04 08:02:26;;;;;;;1.48;0.60;;;;;;;;;;5050942;28;20239;-43
2023/06/04 08:04:53;;;;;;;1.40;0.50;;;;;;;;;;5057941;28;20620;-44
2023/06/04 08:07:21;;;;;;;0.20;0.20;;;;;;;;;;5046966;28;20189;-44
2023/06/04 08:09:49;;;;;;;1.02;0.60;;;;;;;;;;5045423;28;20617;-44
2023/06/04 08:12:16;;;;;;;0.50;0.30;;;;;;;;;;5049667;28;20195;-44
2023/06/04 08:14:43;;;;;;;1.52;0.52;;;;;;;;;;5051036;28;20602;-43
2023/06/04 08:17:11;;;;;;;0.45;0.30;;;;;;;;;;5047738;28;20188;-44
2023/06/04 08:19:38;;;;;;;0.60;0.50;;;;;;;;;;5050427;28;20204;-43
2023/06/04 08:22:06;;;;;;;0.60;0.40;;;;;;;;;;5048384;28;20196;-44
2023/06/04 08:24:33;;;;;;;0.73;0.40;;;;;;;;;;5052898;28;20235;-45
2023/06/04 08:27:00;;;;;;;0.40;0.40;;;;;;;;;;5054171;28;20680;-44
2023/06/04 08:29:28;;;;;;;1.00;0.50;;;;;;;;;;5048773;28;20606;-44
2023/06/04 08:31:56;;;;;;;1.10;0.38;;;;;;;;;;5049596;28;20200;-43
2023/06/04 08:34:23;;;;;;;0.40;0.40;;;;;;;;;;5048328;28;20196;-42
2023/06/04 08:36:50;;;;;;;0.90;0.43;;;;;;;;;;5049636;28;20207;-43
2023/06/04 08:39:18;;;;;;;0.82;0.40;;;;;;;;;;5050137;28;20200;-44
2023/06/04 08:42:07;;;;;;;0.55;0.30;;;;;;;;;;5047684;28;20563;-42
2023/06/04 08:44:34;;;;;;;0.70;0.40;;;;;;;;;;5041023;28;20693;-43
2023/06/04 08:47:04;;;;;;;0.98;0.30;;;;;;;;;;5050259;28;20231;-42
2023/06/04 08:49:38;;;;;;;0.77;0.45;;;;;;;;;;5035409;28;20692;-45
2023/06/04 08:52:06;;;;;;;0.70;0.40;;;;;;;;;;5058670;28;20227;-43
2023/06/04 08:54:33;;;;;;;0.77;0.50;;;;;;;;;;5058669;28;20249;-43
2023/06/04 08:57:02;;;;;;;0.93;0.43;;;;;;;;;;5055978;28;20236;-43
2023/06/04 08:59:29;;;;;;;0.50;0.30;;;;;;;;;;5052113;28;20307;-44
2023/06/04 09:01:56;;;;;;;0.47;0.43;;;;;;;;;;5047263;28;20224;-44
2023/06/04 09:04:24;;;;;;;0.32;0.30;;;;;;;;;;5029571;28;20224;-43
2023/06/04 09:06:53;;;;;;;0.75;0.38;;;;;;;;;;5048092;28;20212;-44
2023/06/04 09:09:22;;;;;;;1.05;0.30;;;;;;;;;;5028088;28;20744;-46
2023/06/04 09:11:52;;;;;;;0.57;0.40;;;;;;;;;;5019869;28;20216;-45
2023/06/04 09:14:20;;;;;;;0.47;0.47;;;;;;;;;;5044356;28;20738;-44
2023/06/04 09:16:52;;;;;;;0.77;0.45;;;;;;;;;;5046004;28;20224;-45
2023/06/04 09:19:19;;;;;;;0.77;0.30;;;;;;;;;;5043285;28;20220;-44
2023/06/04 09:21:57;;;;;;;0.30;0.20;;;;;;;;;;5044647;28;20273;-45
2023/06/04 09:24:38;;;;;;;1.13;0.60;;;;;;;;;;5055354;28;20806;-42
2023/06/04 09:27:16;;;;;;;0.40;0.30;;;;;;;;;;5055444;28;20230;-43
2023/06/04 09:29:55;;;;;;;0.88;0.38;;;;;;;;;;5046088;28;20221;-44
2023/06/04 09:32:31;;;;;;;0.50;0.40;;;;;;;;;;5044381;28;20703;-45
2023/06/04 09:35:11;;;;;;;1.55;0.68;;;;;;;;;;5053533;28;20231;-43
2023/06/04 09:37:39;;;;;;;0.70;0.40;;;;;;;;;;5054021;28;20223;-43
2023/06/04 09:40:08;;;;;;;1.42;0.40;;;;;;;;;;5048699;28;20651;-46
2023/06/04 09:42:46;;;;;;;0.65;0.35;;;;;;;;;;5052634;28;20753;-46
2023/06/04 09:45:13;;;;;;;0.57;0.32;;;;;;;;;;5053724;28;20187;-43
2023/06/04 09:47:44;;;;;;;0.73;0.40;;;;;;;;;;5055177;28;20207;-43
2023/06/04 09:50:12;;;;;;;0.50;0.40;;;;;;;;;;5049398;28;20201;-43
2023/06/04 09:52:39;;;;;;;1.27;0.40;;;;;;;;;;5035514;28;20300;-43
2023/06/04 09:55:21;;;;;;;0.40;0.40;;;;;;;;;;5035688;28;20205;-42
2023/06/04 09:57:50;;;;;;;0.47;0.30;;;;;;;;;;5035624;28;20215;-43
2023/06/04 10:00:20;;;;;;;0.50;0.43;;;;;;;;;;5035263;28;20696;-43
2023/06/04 10:02:48;;;;;;;0.80;0.43;;;;;;;;;;5035253;28;20199;-43
2023/06/04 10:05:16;;;;;;;0.30;0.20;;;;;;;;;;5017990;28;20209;-43
2023/06/04 10:07:45;;;;;;;0.35;0.30;;;;;;;;;;5035227;28;20568;-43
2023/06/04 10:10:16;;;;;;;0.50;0.40;;;;;;;;;;5035158;28;20207;-43
2023/06/04 10:12:45;;;;;;;2.88;0.55;;;;;;;;;;5017990;28;20219;-43
2023/06/04 10:15:13;;;;;;;0.73;0.40;;;;;;;;;;5035669;28;20201;-43
2023/06/04 10:17:41;;;;;;;1.10;0.47;;;;;;;;;;5035156;28;20258;-43
2023/06/04 10:20:08;;;;;;;1.70;0.28;;;;;;;;;;5035316;28;20201;-43
2023/06/04 10:22:37;;;;;;;0.50;0.30;;;;;;;;;;5034861;28;20677;-43
2023/06/04 10:25:05;;;;;;;0.68;0.30;;;;;;;;;;5034771;28;20311;-43
2023/06/04 10:27:34;;;;;;;0.38;0.30;;;;;;;;;;5017099;28;20205;-42
2023/06/04 10:30:03;;;;;;;0.20;0.15;;;;;;;;;;5034792;28;20680;-43
2023/06/04 10:32:30;;;;;;;1.10;0.20;;;;;;;;;;5017561;28;20204;-43
2023/06/04 10:34:58;;;;;;;0.35;0.32;;;;;;;;;;5034629;28;20295;-42
2023/06/04 10:37:26;;;;;;;0.30;0.30;;;;;;;;;;5034784;28;20209;-42
2023/06/04 10:39:54;;;;;;;0.70;0.40;;;;;;;;;;5034711;28;20201;-43
2023/06/04 10:42:22;;;;;;;3.63;0.40;;;;;;;;;;5034784;28;20228;-43
2023/06/04 10:44:53;;;;;;;1.30;0.30;;;;;;;;;;5034609;28;20232;-43
2023/06/04 10:47:26;;;;;;;0.43;0.30;;;;;;;;;;5017660;28;20204;-43
2023/06/04 10:49:54;;;;;;;0.45;0.30;;;;;;;;;;5034546;28;20205;-43
2023/06/04 10:52:22;;;;;;;0.40;0.30;;;;;;;;;;5034618;28;20563;-43
2023/06/04 10:54:51;;;;;;;0.65;0.30;;;;;;;;;;5016841;28;20211;-43
2023/06/04 10:57:19;;;;;;;0.75;0.47;;;;;;;;;;5034301;28;20205;-43
2023/06/04 10:59:59;;;;;;;0.80;0.40;;;;;;;;;;5034170;28;20208;-43
2023/06/04 11:02:27;;;;;;;0.73;0.45;;;;;;;;;;5034114;28;20575;-43
2023/06/04 11:05:08;;;;;;;0.80;0.40;;;;;;;;;;5033980;28;20217;-43
2023/06/04 11:07:46;;;;;;;1.02;0.38;;;;;;;;;;5034115;28;20270;-43
2023/06/04 11:10:14;;;;;;;0.82;0.35;;;;;;;;;;5034120;28;20558;-43
2023/06/04 11:12:42;;;;;;;0.50;0.50;;;;;;;;;;5034091;28;20205;-43
2023/06/04 11:15:10;;;;;;;0.63;0.30;;;;;;;;;;5033955;28;20215;-43
2023/06/04 11:17:37;;;;;;;1.40;0.30;;;;;;;;;;5033902;28;20208;-43
2023/06/04 11:20:06;;;;;;;0.55;0.30;;;;;;;;;;5034356;28;20215;-42
2023/06/04 11:22:34;;;;;;;0.30;0.30;;;;;;;;;;5016793;28;20201;-43
2023/06/04 11:25:02;;;;;;;0.90;0.40;;;;;;;;;;5033813;28;20228;-42
2023/06/04 11:27:33;;;;;;;2.00;0.40;;;;;;;;;;5033695;28;20250;-43
2023/06/04 11:30:06;;;;;;;0.60;0.50;;;;;;;;;;5033962;28;20193;-42
2023/06/04 11:32:34;;;;;;;0.73;0.40;;;;;;;;;;5034170;28;20208;-43
2023/06/04 11:35:06;;;;;;;1.40;0.30;;;;;;;;;;5033554;28;20235;-43
2023/06/04 11:37:34;;;;;;;0.70;0.35;;;;;;;;;;5032960;28;20673;-43
2023/06/04 11:40:04;;;;;;;2.85;0.38;;;;;;;;;;5033989;28;20330;-43
2023/06/04 11:42:32;;;;;;;1.40;0.43;;;;;;;;;;5033420;28;20208;-42
2023/06/04 11:44:59;;;;;;;0.25;0.25;;;;;;;;;;5033430;28;20259;-43
2023/06/04 11:47:26;;;;;;;0.47;0.40;;;;;;;;;;5033714;28;20291;-43
2023/06/04 11:49:56;;;;;;;0.22;0.22;;;;;;;;;;5033590;28;20213;-43
2023/06/04 11:52:24;;;;;;;1.25;0.50;;;;;;;;;;5033643;28;20208;-44
2023/06/04 11:54:51;;;;;;;1.15;0.57;;;;;;;;;;5033272;28;20236;-44
2023/06/04 11:57:18;;;;;;;0.77;0.40;;;;;;;;;;5033376;28;20201;-44
2023/06/04 11:59:45;;;;;;;0.45;0.43;;;;;;;;;;5033842;28;20204;-43
2023/06/04 12:02:13;;;;;;;0.28;0.25;;;;;;;;;;5033579;28;20208;-43
2023/06/04 12:04:40;;;;;;;0.43;0.40;;;;;;;;;;5033288;28;20351;-43
2023/06/04 12:07:09;;;;;;;0.38;0.32;;;;;;;;;;5033358;28;20365;-44
2023/06/04 12:09:39;;;;;;;0.90;0.50;;;;;;;;;;5033347;28;20209;-43
2023/06/04 12:12:08;;;;;;;0.30;0.30;;;;;;;;;;5033838;28;20339;-43
2023/06/04 12:14:35;;;;;;;0.80;0.50;;;;;;;;;;5031652;28;20295;-45
2023/06/04 12:17:08;;;;;;;1.17;0.52;;;;;;;;;;5031368;28;20208;-45
2023/06/04 12:19:48;;;;;;;0.88;0.47;;;;;;;;;;5031297;28;20621;-44
2023/06/04 12:22:16;;;;;;;1.77;0.50;;;;;;;;;;5031138;28;20265;-43
2023/06/04 12:24:47;;;;;;;0.30;0.30;;;;;;;;;;5031202;28;20274;-43
2023/06/04 12:27:15;;;;;;;1.02;0.40;;;;;;;;;;5031633;28;20290;-44
2023/06/04 12:29:42;;;;;;;0.50;0.35;;;;;;;;;;5031298;28;20668;-44
2023/06/04 12:32:12;;;;;;;0.43;0.10;;;;;;;;;;5032282;28;20685;-43
2023/06/04 12:34:40;;;;;;;1.35;0.50;;;;;;;;;;5032839;28;20208;-43
2023/06/04 12:37:08;;;;;;;2.70;0.30;;;;;;;;;;5033460;28;20235;-43
2023/06/04 12:39:36;;;;;;;0.50;0.30;;;;;;;;;;5033176;28;20296;-43
2023/06/04 12:42:08;;;;;;;1.45;0.65;;;;;;;;;;5032887;28;20581;-43
2023/06/04 12:44:36;;;;;;;1.52;0.50;;;;;;;;;;5033527;28;20240;-43
2023/06/04 12:47:03;;;;;;;0.30;0.30;;;;;;;;;;5033077;28;20255;-43
2023/06/04 12:49:31;;;;;;;1.05;0.45;;;;;;;;;;5034838;28;20258;-43
2023/06/04 12:51:58;;;;;;;2.70;0.30;;;;;;;;;;5036574;28;20200;-43
2023/06/04 12:54:27;;;;;;;0.93;0.50;;;;;;;;;;5036827;28;20204;-43
2023/06/04 12:56:56;;;;;;;0.77;0.50;;;;;;;;;;5036626;28;20670;-43
2023/06/04 12:59:27;;;;;;;0.50;0.32;;;;;;;;;;5019098;28;20555;-43
2023/06/04 13:01:55;;;;;;;1.70;0.30;;;;;;;;;;5036785;28;20213;-43
2023/06/04 13:04:23;;;;;;;0.63;0.45;;;;;;;;;;5036542;28;20229;-43
2023/06/04 13:06:58;;;;;;;0.63;0.30;;;;;;;;;;5036656;28;20209;-43
2023/06/04 13:09:28;;;;;;;0.43;0.28;;;;;;;;;;5036635;28;20199;-43
2023/06/04 13:11:56;;;;;;;1.42;0.52;;;;;;;;;;5036210;28;20201;-44
2023/06/04 13:14:23;;;;;;;2.65;0.60;;;;;;;;;;5036456;28;20254;-43
2023/06/04 13:16:51;;;;;;;2.08;0.63;;;;;;;;;;5036391;28;20197;-43
2023/06/04 13:19:20;;;;;;;1.08;0.47;;;;;;;;;;5036048;28;20205;-43
2023/06/04 13:21:48;;;;;;;1.05;0.73;;;;;;;;;;5036380;28;20217;-43
2023/06/04 13:24:15;;;;;;;0.30;0.30;;;;;;;;;;5036392;28;20248;-44
2023/06/04 13:26:42;;;;;;;0.93;0.50;;;;;;;;;;5036050;28;20693;-43
2023/06/04 13:29:09;;;;;;;3.15;0.40;;;;;;;;;;5036463;28;20207;-43
2023/06/04 13:31:39;;;;;;;0.50;0.35;;;;;;;;;;5035925;28;20216;-43
2023/06/04 13:34:06;;;;;;;0.55;0.50;;;;;;;;;;5036164;28;20258;-43
2023/06/04 13:36:53;;;;;;;0.55;0.43;;;;;;;;;;5036091;28;20197;-43
2023/06/04 13:39:20;;;;;;;1.15;0.47;;;;;;;;;;5035594;28;20661;-43
2023/06/04 13:41:47;;;;;;;1.88;0.55;;;;;;;;;;5035956;28;20204;-43
2023/06/04 13:44:15;;;;;;;0.60;0.40;;;;;;;;;;5035495;28;20245;-43
2023/06/04 13:46:42;;;;;;;0.80;0.57;;;;;;;;;;5035911;28;20208;-43
2023/06/04 13:49:09;;;;;;;0.70;0.50;;;;;;;;;;5035726;28;20276;-43
2023/06/04 13:51:36;;;;;;;0.60;0.50;;;;;;;;;;5035581;28;20205;-43
2023/06/04 13:54:03;;;;;;;1.05;0.50;;;;;;;;;;5035462;28;20243;-43
2023/06/04 13:56:31;;;;;;;1.35;0.70;;;;;;;;;;5035707;28;20625;-43
2023/06/04 13:58:58;;;;;;;1.35;0.65;;;;;;;;;;5035344;28;20565;-43
2023/06/04 14:01:25;;;;;;;1.08;0.43;;;;;;;;;;5034659;28;20207;-43
2023/06/04 14:03:53;;;;;;;1.30;0.70;;;;;;;;;;5035480;28;20204;-43
2023/06/04 14:06:20;;;;;;;1.08;0.45;;;;;;;;;;5035208;28;20211;-43
2023/06/04 14:08:47;;;;;;;1.48;0.60;;;;;;;;;;5035543;28;20201;-43
2023/06/04 14:11:15;;;;;;;0.93;0.47;;;;;;;;;;5035141;28;20205;-44
2023/06/04 14:13:44;;;;;;;1.00;0.52;;;;;;;;;;5035047;28;20208;-43
2023/06/04 14:16:12;;;;;;;1.90;0.43;;;;;;;;;;5035220;28;20215;-43
2023/06/04 14:18:39;;;;;;;0.47;0.40;;;;;;;;;;5034911;28;20224;-44
2023/06/04 14:21:06;;;;;;;0.68;0.52;;;;;;;;;;5035244;28;20267;-43
2023/06/04 14:23:34;;;;;;;1.08;0.60;;;;;;;;;;5017798;28;20200;-43
2023/06/04 14:26:01;;;;;;;0.40;0.38;;;;;;;;;;5035036;28;20625;-43
2023/06/04 14:28:29;;;;;;;0.63;0.40;;;;;;;;;;5034808;28;20288;-43
2023/06/04 14:30:58;;;;;;;0.40;0.28;;;;;;;;;;5035031;28;20559;-44
2023/06/04 14:33:25;;;;;;;1.40;0.50;;;;;;;;;;5033530;28;20595;-44
2023/06/04 14:35:52;;;;;;;4.78;0.60;;;;;;;;;;5034429;28;20255;-45
2023/06/04 14:38:20;;;;;;;0.88;0.60;;;;;;;;;;5034781;28;20227;-45
2023/06/04 14:40:47;;;;;;;0.50;0.40;;;;;;;;;;5033635;28;20201;-44
2023/06/04 14:43:14;;;;;;;0.45;0.40;;;;;;;;;;5034621;28;20244;-47
2023/06/04 14:45:42;;;;;;;0.75;0.35;;;;;;;;;;5034629;28;20232;-46
2023/06/04 14:48:09;;;;;;;0.90;0.50;;;;;;;;;;5034899;28;20251;-44
2023/06/04 14:50:43;;;;;;;1.77;0.65;;;;;;;;;;5034771;28;20646;-44
2023/06/04 14:53:11;;;;;;;0.60;0.40;;;;;;;;;;5034221;28;20216;-44